createdAt,value
2023-07-03T00:00:54.646Z,18.04
2023-07-03T00:03:21.872Z,18.01
2023-07-03T00:05:51.665Z,18.12
2023-07-03T00:08:18.745Z,18.40
2023-07-03T00:10:45.850Z,19.07
2023-07-03T00:13:12.629Z,19.67
2023-07-03T00:15:39.439Z,19.59
2023-07-03T00:18:06.591Z,19.88
2023-07-03T00:20:33.389Z,20.54
2023-07-03T00:23:01.428Z,19.99
2023-07-03T00:25:28.553Z,20.41
2023-07-03T00:27:55.373Z,20.53
2023-07-03T00:30:22.477Z,20.57
2023-07-03T00:32:49.265Z,19.77
2023-07-03T00:35:16.081Z,19.52
2023-07-03T00:37:43.243Z,19.67
2023-07-03T00:40:10.947Z,19.84
2023-07-03T00:42:37.697Z,19.09
2023-07-03T00:45:08.704Z,18.24
2023-07-03T00:47:35.458Z,18.80
2023-07-03T00:50:03.497Z,19.57
2023-07-03T00:52:30.280Z,19.62
2023-07-03T00:54:56.986Z,18.29
2023-07-03T00:57:24.087Z,18.94
2023-07-03T00:59:53.392Z,19.72
2023-07-03T01:02:25.714Z,19.80
2023-07-03T01:05:08.599Z,20.13
2023-07-03T01:07:35.455Z,20.20
2023-07-03T01:10:14.154Z,20.06
2023-07-03T01:12:43.111Z,20.47
2023-07-03T01:15:12.482Z,20.61
2023-07-03T01:17:39.391Z,20.67
2023-07-03T01:20:07.593Z,19.88
2023-07-03T01:22:45.647Z,19.95
2023-07-03T01:25:13.461Z,19.81
2023-07-03T01:27:41.410Z,19.50
2023-07-03T01:30:10.282Z,19.20
2023-07-03T01:32:37.128Z,18.21
2023-07-03T01:35:04.321Z,18.31
2023-07-03T01:37:31.458Z,18.56
2023-07-03T01:39:58.198Z,19.28
2023-07-03T01:42:25.940Z,19.68
2023-07-03T01:44:52.743Z,19.72
2023-07-03T01:47:19.495Z,19.08
2023-07-03T01:49:46.279Z,17.85
2023-07-03T01:52:27.408Z,18.41
2023-07-03T01:55:29.457Z,18.70
2023-07-03T01:58:13.931Z,18.92
2023-07-03T02:00:52.659Z,19.15
2023-07-03T02:04:16.057Z,18.66
2023-07-03T02:06:43.449Z,18.49
2023-07-03T02:09:10.177Z,18.38
2023-07-03T02:11:36.968Z,18.18
2023-07-03T02:14:04.026Z,18.85
2023-07-03T02:16:31.090Z,18.41
2023-07-03T02:18:58.553Z,19.12
2023-07-03T02:21:25.691Z,19.51
2023-07-03T02:23:52.464Z,18.64
2023-07-03T02:26:19.193Z,18.66
2023-07-03T02:28:46.338Z,18.87
2023-07-03T02:31:13.605Z,18.83
2023-07-03T02:33:41.953Z,18.52
2023-07-03T02:36:08.661Z,18.64
2023-07-03T02:38:35.396Z,18.52
2023-07-03T02:41:02.402Z,18.15
2023-07-03T02:43:29.148Z,18.33
2023-07-03T02:45:55.859Z,18.64
2023-07-03T02:48:22.600Z,18.90
2023-07-03T02:50:53.924Z,18.78
2023-07-03T02:53:20.696Z,18.67
2023-07-03T02:55:51.229Z,18.49
2023-07-03T02:58:18.529Z,19.19
2023-07-03T03:00:45.301Z,19.31
2023-07-03T03:03:12.125Z,18.80
2023-07-03T03:05:39.046Z,19.73
2023-07-03T03:08:05.830Z,19.45
2023-07-03T03:10:32.571Z,19.45
2023-07-03T03:12:59.334Z,19.30
2023-07-03T03:15:27.215Z,19.70
2023-07-03T03:17:55.789Z,19.44
2023-07-03T03:20:22.606Z,18.95
2023-07-03T03:22:49.846Z,18.63
2023-07-03T03:25:16.620Z,18.19
2023-07-03T03:27:43.362Z,18.45
2023-07-03T03:30:11.855Z,18.13
2023-07-03T03:32:39.124Z,18.20
2023-07-03T03:35:06.334Z,18.80
2023-07-03T03:37:33.079Z,19.03
2023-07-03T03:39:59.789Z,18.75
2023-07-03T03:42:26.620Z,18.73
2023-07-03T03:44:53.359Z,18.10
2023-07-03T03:47:20.180Z,18.10
2023-07-03T03:49:47.550Z,18.17
2023-07-03T03:52:14.353Z,18.58
2023-07-03T03:54:41.205Z,18.46
2023-07-03T03:57:07.943Z,18.65
2023-07-03T03:59:34.661Z,18.72
2023-07-03T04:02:01.520Z,18.74
2023-07-03T04:04:28.549Z,18.88
2023-07-03T04:06:55.309Z,18.80
2023-07-03T04:09:22.060Z,18.64
2023-07-03T04:11:48.809Z,18.56
2023-07-03T04:14:15.519Z,18.63
2023-07-03T04:16:42.395Z,18.50
2023-07-03T04:19:10.189Z,18.57
2023-07-03T04:21:39.458Z,18.84
2023-07-03T04:24:15.829Z,18.68
2023-07-03T04:26:42.700Z,18.56
2023-07-03T04:29:09.494Z,18.49
2023-07-03T04:31:36.352Z,18.46
2023-07-03T04:34:03.174Z,18.56
2023-07-03T04:36:29.968Z,18.61
2023-07-03T04:38:56.750Z,18.58
2023-07-03T04:41:26.558Z,18.53
2023-07-03T04:44:05.298Z,18.68
2023-07-03T04:46:32.662Z,18.86
2023-07-03T04:48:59.488Z,18.49
2023-07-03T04:51:26.626Z,18.58
2023-07-03T04:53:56.333Z,18.95
2023-07-03T04:56:23.065Z,19.10
2023-07-03T04:58:51.281Z,19.03
2023-07-03T05:01:19.610Z,18.27
2023-07-03T05:03:48.494Z,18.43
2023-07-03T05:06:15.713Z,18.48
2023-07-03T05:08:42.849Z,18.57
2023-07-03T05:11:09.759Z,18.49
2023-07-03T05:13:36.653Z,18.43
2023-07-03T05:16:03.716Z,18.92
2023-07-03T05:18:31.067Z,19.03
2023-07-03T05:20:58.211Z,19.36
2023-07-03T05:23:24.939Z,19.11
2023-07-03T05:25:51.808Z,19.05
2023-07-03T05:28:19.389Z,19.03
2023-07-03T05:30:48.156Z,19.35
2023-07-03T05:33:16.243Z,19.46
2023-07-03T05:35:50.531Z,19.28
2023-07-03T05:38:36.194Z,18.94
2023-07-03T05:41:21.844Z,18.62
2023-07-03T05:44:07.230Z,18.56
2023-07-03T05:46:52.856Z,18.38
2023-07-03T05:49:38.446Z,18.60
2023-07-03T05:52:23.926Z,18.58
2023-07-03T05:55:09.890Z,19.04
2023-07-03T05:57:55.922Z,19.02
2023-07-03T06:00:40.982Z,19.23
2023-07-03T06:03:26.762Z,19.13
2023-07-03T06:06:11.915Z,18.71
2023-07-03T06:08:57.807Z,18.87
2023-07-03T06:11:42.974Z,19.16
2023-07-03T06:14:29.604Z,19.18
2023-07-03T06:17:15.693Z,19.23
2023-07-03T06:20:01.398Z,19.45
2023-07-03T06:22:46.686Z,19.40
2023-07-03T06:25:32.111Z,19.22
2023-07-03T06:28:17.366Z,19.06
2023-07-03T06:31:02.985Z,19.82
2023-07-03T06:33:48.274Z,19.58
2023-07-03T06:36:33.663Z,20.01
2023-07-03T06:39:19.066Z,19.35
2023-07-03T06:42:04.853Z,19.59
2023-07-03T06:44:50.606Z,19.77
2023-07-03T06:47:36.565Z,19.78
2023-07-03T06:50:22.276Z,19.44
2023-07-03T06:53:08.184Z,19.54
2023-07-03T06:55:59.103Z,19.78
2023-07-03T06:58:45.227Z,20.44
2023-07-03T07:01:30.969Z,19.93
2023-07-03T07:04:16.598Z,19.87
2023-07-03T07:07:02.245Z,19.80
2023-07-03T07:09:47.749Z,19.73
2023-07-03T07:12:33.263Z,19.97
2023-07-03T07:15:18.793Z,20.41
2023-07-03T07:18:05.499Z,21.23
2023-07-03T07:20:51.079Z,20.68
2023-07-03T07:23:36.512Z,20.42
2023-07-03T07:26:22.337Z,21.34
2023-07-03T07:29:08.129Z,21.43
2023-07-03T07:31:54.850Z,22.08
2023-07-03T07:34:41.955Z,22.06
2023-07-03T07:37:28.042Z,21.50
2023-07-03T07:40:14.513Z,21.78
2023-07-03T07:43:03.188Z,20.87
2023-07-03T07:45:53.550Z,20.90
2023-07-03T07:48:39.681Z,20.57
2023-07-03T07:51:25.234Z,21.24
2023-07-03T07:54:10.578Z,21.76
2023-07-03T07:56:57.277Z,22.54
2023-07-03T07:59:42.396Z,22.36
2023-07-03T08:02:27.925Z,22.15
2023-07-03T08:05:13.636Z,22.36
2023-07-03T08:08:02.090Z,22.06
2023-07-03T08:10:55.219Z,22.46
2023-07-03T08:13:41.337Z,22.33
2023-07-03T08:16:26.969Z,22.46
2023-07-03T08:19:12.680Z,21.90
2023-07-03T08:21:58.881Z,22.42
2023-07-03T08:24:58.620Z,21.90
2023-07-03T08:27:47.613Z,21.58
2023-07-03T08:30:33.087Z,22.14
2023-07-03T08:33:18.840Z,21.04
2023-07-03T08:38:55.608Z,21.87
2023-07-03T08:41:52.227Z,21.44
2023-07-03T08:44:39.025Z,21.59
2023-07-03T08:47:25.429Z,22.12
2023-07-03T08:50:28.027Z,22.02
2023-07-03T08:53:22.218Z,22.50
2023-07-03T08:56:14.368Z,21.91
2023-07-03T08:58:59.522Z,22.46
2023-07-03T09:01:51.665Z,21.69
2023-07-03T09:04:49.498Z,21.97
2023-07-03T09:07:38.602Z,22.32
2023-07-03T09:10:47.288Z,22.43
2023-07-03T09:13:38.816Z,22.16
2023-07-03T09:16:25.679Z,22.54
2023-07-03T09:19:14.712Z,22.52
2023-07-03T09:22:03.267Z,22.59
2023-07-03T09:24:49.115Z,22.75
2023-07-03T09:27:36.621Z,22.51
2023-07-03T09:30:22.326Z,22.53
2023-07-03T09:33:08.063Z,22.51
2023-07-03T09:35:53.880Z,22.37
2023-07-03T09:38:39.512Z,22.73
2023-07-03T09:41:28.846Z,22.94
2023-07-03T09:44:16.301Z,23.40
2023-07-03T09:47:01.395Z,23.26
2023-07-03T09:49:46.914Z,23.22
2023-07-03T09:52:33.284Z,22.84
2023-07-03T09:55:20.417Z,22.51
2023-07-03T09:58:17.526Z,22.80
2023-07-03T10:01:03.541Z,22.18
2023-07-03T10:03:49.303Z,22.94
2023-07-03T10:06:35.166Z,23.02
2023-07-03T10:12:21.766Z,23.10
2023-07-03T10:15:14.860Z,22.84
2023-07-03T10:18:22.082Z,22.93
2023-07-03T10:21:11.486Z,23.81
2023-07-03T10:23:57.225Z,23.44
2023-07-03T10:26:45.470Z,24.30
2023-07-03T10:29:34.298Z,23.56
2023-07-03T10:32:19.827Z,23.63
2023-07-03T10:35:11.294Z,23.63
2023-07-03T10:38:11.329Z,23.55
2023-07-03T10:41:06.330Z,23.21
2023-07-03T10:43:54.794Z,23.99
2023-07-03T10:47:15.790Z,23.92
2023-07-03T10:50:01.564Z,23.59
2023-07-03T10:52:57.794Z,23.88
2023-07-03T10:56:01.953Z,24.61
2023-07-03T10:58:54.830Z,24.56
2023-07-03T11:01:54.961Z,24.54
2023-07-03T11:04:56.212Z,24.29
2023-07-03T11:07:46.260Z,24.11
2023-07-03T11:10:45.346Z,24.76
2023-07-03T11:13:39.824Z,24.61
2023-07-03T11:16:28.364Z,24.64
2023-07-03T11:19:58.583Z,24.41
2023-07-03T11:23:15.882Z,24.42
2023-07-03T11:29:16.646Z,24.38
2023-07-03T11:32:03.319Z,24.21
2023-07-03T11:40:40.544Z,24.91
2023-07-03T11:43:41.521Z,24.58
2023-07-03T11:46:29.829Z,25.13
2023-07-03T11:49:15.482Z,24.90
2023-07-03T11:52:02.562Z,24.49
2023-07-03T11:54:54.830Z,24.81
2023-07-03T11:57:41.870Z,24.31
2023-07-03T12:00:28.319Z,24.15
2023-07-03T12:03:13.273Z,24.31
2023-07-03T12:05:58.960Z,24.92
2023-07-03T12:08:45.556Z,25.43
2023-07-03T12:11:31.642Z,25.35
2023-07-03T12:14:42.825Z,24.99
2023-07-03T12:17:35.920Z,25.24
2023-07-03T12:20:25.406Z,25.05
2023-07-03T12:23:11.158Z,25.21
2023-07-03T12:26:01.596Z,25.62
2023-07-03T12:28:46.985Z,24.58
2023-07-03T12:31:15.108Z,24.25
2023-07-03T12:33:49.593Z,24.92
2023-07-03T12:36:35.175Z,25.33
2023-07-03T12:39:13.910Z,25.51
2023-07-03T12:41:41.013Z,25.91
2023-07-03T12:44:09.260Z,25.30
2023-07-03T12:46:37.683Z,25.14
2023-07-03T12:49:09.915Z,25.64
2023-07-03T12:51:56.498Z,25.48
2023-07-03T12:54:23.439Z,24.98
2023-07-03T12:56:51.059Z,25.63
2023-07-03T12:59:19.527Z,25.60
2023-07-03T13:01:50.623Z,25.91
2023-07-03T13:04:27.990Z,24.91
2023-07-03T13:06:56.008Z,25.54
2023-07-03T13:09:22.768Z,25.24
2023-07-03T13:11:49.978Z,25.03
2023-07-03T13:14:20.757Z,24.80
2023-07-03T13:16:49.819Z,24.51
2023-07-03T13:19:33.887Z,25.23
2023-07-03T13:22:04.199Z,25.37
2023-07-03T13:24:31.005Z,25.59
2023-07-03T13:26:58.313Z,25.72
2023-07-03T13:29:29.930Z,26.18
2023-07-03T13:32:35.118Z,25.84
2023-07-03T13:35:03.732Z,26.54
2023-07-03T13:37:35.246Z,26.53
2023-07-03T13:40:03.473Z,26.30
2023-07-03T13:42:30.946Z,26.56
2023-07-03T13:44:57.742Z,26.83
2023-07-03T13:47:31.859Z,26.52
2023-07-03T13:49:58.615Z,27.07
2023-07-03T13:52:25.448Z,27.08
2023-07-03T13:54:53.975Z,26.04
2023-07-03T13:57:20.829Z,25.96
2023-07-03T13:59:47.682Z,26.53
2023-07-03T14:02:14.488Z,26.32
2023-07-03T14:04:41.760Z,26.03
2023-07-03T14:07:09.306Z,26.55
2023-07-03T14:09:44.368Z,27.02
2023-07-03T14:12:14.007Z,27.10
2023-07-03T14:14:42.288Z,26.63
2023-07-03T14:17:14.032Z,26.91
2023-07-03T14:19:43.720Z,26.92
2023-07-03T14:22:11.903Z,26.76
2023-07-03T14:24:41.681Z,27.20
2023-07-03T14:27:09.230Z,26.77
2023-07-03T14:29:37.331Z,27.37
2023-07-03T14:32:04.739Z,27.62
2023-07-03T14:34:31.605Z,26.89
2023-07-03T14:36:59.420Z,27.96
2023-07-03T14:39:31.336Z,27.15
2023-07-03T14:41:58.196Z,27.31
2023-07-03T14:44:25.355Z,27.12
2023-07-03T14:47:13.676Z,27.94
2023-07-03T14:49:41.282Z,27.21
2023-07-03T14:52:08.719Z,27.60
2023-07-03T14:54:35.886Z,27.45
2023-07-03T14:57:03.037Z,27.61
2023-07-03T14:59:31.443Z,27.90
2023-07-03T15:01:58.274Z,27.82
2023-07-03T15:04:28.577Z,27.66
2023-07-03T15:06:55.605Z,27.87
2023-07-03T15:09:22.382Z,27.50
2023-07-03T15:11:49.205Z,27.38
2023-07-03T15:14:15.972Z,26.86
2023-07-03T15:16:42.852Z,27.53
2023-07-03T15:19:11.108Z,28.33
2023-07-03T15:21:37.927Z,27.68
2023-07-03T15:24:06.227Z,27.27
2023-07-03T15:26:33.876Z,28.09
2023-07-03T15:29:00.867Z,27.76
2023-07-03T15:31:27.865Z,26.70
2023-07-03T15:33:56.369Z,26.89
2023-07-03T15:36:23.162Z,26.97
2023-07-03T15:38:50.178Z,26.95
2023-07-03T15:41:17.391Z,27.20
2023-07-03T15:43:48.814Z,27.54
2023-07-03T15:46:16.320Z,27.60
2023-07-03T15:48:43.746Z,27.35
2023-07-03T15:51:11.479Z,26.88
2023-07-03T15:53:38.222Z,26.82
2023-07-03T15:56:14.993Z,27.35
2023-07-03T15:58:43.336Z,27.00
2023-07-03T16:01:16.764Z,27.42
2023-07-03T16:03:43.839Z,27.06
2023-07-03T16:06:18.764Z,26.09
2023-07-03T16:08:45.661Z,26.34
2023-07-03T16:11:15.982Z,27.06
2023-07-03T16:13:46.160Z,27.61
2023-07-03T16:16:18.454Z,27.47
2023-07-03T16:18:52.925Z,26.27
2023-07-03T16:21:21.629Z,26.28
2023-07-03T16:23:50.064Z,26.02
2023-07-03T16:26:16.785Z,26.55
2023-07-03T16:28:43.522Z,27.52
2023-07-03T16:31:11.333Z,27.29
2023-07-03T16:33:45.422Z,27.71
2023-07-03T16:36:13.714Z,27.28
2023-07-03T16:38:53.484Z,27.00
2023-07-03T16:41:20.771Z,26.52
2023-07-03T16:43:48.444Z,25.91
2023-07-03T16:46:17.193Z,26.06
2023-07-03T16:48:43.953Z,26.48
2023-07-03T16:51:10.707Z,26.84
2023-07-03T16:53:41.347Z,26.77
2023-07-03T16:56:16.061Z,26.85
2023-07-03T16:58:43.703Z,27.01
2023-07-03T17:01:16.467Z,27.85
2023-07-03T17:03:43.461Z,28.97
2023-07-03T17:06:21.055Z,29.30
2023-07-03T17:08:47.857Z,29.49
2023-07-03T17:11:14.650Z,29.74
2023-07-03T17:13:41.468Z,28.94
2023-07-03T17:16:08.413Z,29.03
2023-07-03T17:18:36.555Z,29.32
2023-07-03T17:21:03.388Z,29.45
2023-07-03T17:23:31.391Z,29.48
2023-07-03T17:25:58.256Z,30.68
2023-07-03T17:28:26.278Z,30.47
2023-07-03T17:30:56.013Z,31.10
2023-07-03T17:33:22.789Z,30.57
2023-07-03T17:35:51.116Z,30.88
2023-07-03T17:38:18.041Z,31.14
2023-07-03T17:40:47.431Z,31.02
2023-07-03T17:43:15.110Z,30.37
2023-07-03T17:45:42.563Z,31.29
2023-07-03T17:48:10.433Z,31.61
2023-07-03T17:50:37.765Z,31.25
2023-07-03T17:53:04.571Z,30.37
2023-07-03T17:55:31.802Z,30.69
2023-07-03T17:57:58.779Z,30.78
2023-07-03T18:00:25.901Z,30.93
2023-07-03T18:02:52.979Z,30.56
2023-07-03T18:05:20.148Z,31.91
2023-07-03T18:07:46.853Z,29.58
2023-07-03T18:10:13.602Z,30.59
2023-07-03T18:12:40.361Z,28.88
2023-07-03T18:15:08.616Z,29.10
2023-07-03T18:17:35.380Z,29.05
2023-07-03T18:20:02.116Z,30.64
2023-07-03T18:22:29.608Z,30.60
2023-07-03T18:24:56.409Z,30.89
2023-07-03T18:27:23.195Z,30.21
2023-07-03T18:29:50.029Z,30.04
2023-07-03T18:32:16.766Z,29.24
2023-07-03T18:34:44.910Z,30.19
2023-07-03T18:37:11.677Z,29.09
2023-07-03T18:39:41.432Z,27.98
2023-07-03T18:42:08.844Z,27.88
2023-07-03T18:44:44.867Z,26.50
2023-07-03T18:47:11.832Z,26.18
2023-07-03T18:49:40.468Z,24.56
2023-07-03T18:52:08.265Z,25.00
2023-07-03T18:54:35.008Z,24.64
2023-07-03T18:57:03.805Z,24.91
2023-07-03T18:59:30.917Z,24.71
2023-07-03T19:01:57.653Z,24.69
2023-07-03T19:04:24.817Z,24.41
2023-07-03T19:06:51.619Z,24.37
2023-07-03T19:09:19.706Z,24.17
2023-07-03T19:11:49.323Z,23.75
2023-07-03T19:14:16.427Z,23.19
2023-07-03T19:16:44.651Z,23.32
2023-07-03T19:19:11.983Z,23.44
2023-07-03T19:21:40.336Z,23.64
2023-07-03T19:24:07.422Z,23.61
2023-07-03T19:26:34.222Z,23.37
2023-07-03T19:29:01.274Z,23.40
2023-07-03T19:31:28.514Z,23.70
2023-07-03T19:34:00.441Z,23.04
2023-07-03T19:36:27.233Z,22.64
2023-07-03T19:38:54.468Z,21.99
2023-07-03T19:41:21.395Z,22.05
2023-07-03T19:43:49.107Z,21.51
2023-07-03T19:46:16.634Z,20.93
2023-07-03T19:48:43.838Z,20.72
2023-07-03T19:51:10.572Z,19.98
2023-07-03T19:53:37.713Z,20.48
2023-07-03T19:56:12.932Z,21.41
2023-07-03T19:58:40.152Z,21.17
2023-07-03T20:01:07.192Z,20.41
2023-07-03T20:03:34.368Z,20.64
2023-07-03T20:06:01.178Z,20.86
2023-07-03T20:08:30.482Z,21.12
2023-07-03T20:11:01.817Z,19.87
2023-07-03T20:13:29.732Z,19.10
2023-07-03T20:16:01.052Z,19.16
2023-07-03T20:18:28.188Z,19.24
2023-07-03T20:20:55.270Z,19.78
2023-07-03T20:23:22.556Z,19.72
2023-07-03T20:25:56.297Z,18.98
2023-07-03T20:28:23.781Z,19.47
2023-07-03T20:30:53.538Z,20.01
2023-07-03T20:33:20.303Z,19.12
2023-07-03T20:36:01.925Z,18.95
2023-07-03T20:38:30.648Z,18.66
2023-07-03T20:41:02.586Z,18.58
2023-07-03T20:43:29.699Z,18.62
2023-07-03T20:46:03.767Z,18.84
2023-07-03T20:48:37.136Z,19.06
2023-07-03T20:51:04.532Z,19.83
2023-07-03T20:53:34.088Z,19.04
2023-07-03T20:56:02.660Z,18.99
2023-07-03T20:58:29.780Z,18.47
2023-07-03T21:00:57.054Z,18.70
2023-07-03T21:03:25.061Z,19.72
2023-07-03T21:05:52.498Z,20.36
2023-07-03T21:08:19.459Z,20.49
2023-07-03T21:10:51.288Z,19.46
2023-07-03T21:13:18.082Z,19.73
2023-07-03T21:15:45.049Z,18.55
2023-07-03T21:18:12.183Z,18.37
2023-07-03T21:20:39.640Z,18.58
2023-07-03T21:23:06.727Z,19.10
2023-07-03T21:25:34.265Z,19.97
2023-07-03T21:28:01.060Z,20.12
2023-07-03T21:30:27.839Z,18.91
2023-07-03T21:32:55.238Z,18.96
2023-07-03T21:35:22.334Z,19.33
2023-07-03T21:37:51.948Z,18.62
2023-07-03T21:40:18.683Z,18.42
2023-07-03T21:42:46.362Z,18.23
2023-07-03T21:45:13.084Z,18.23
2023-07-03T21:47:47.023Z,18.34
2023-07-03T21:50:13.769Z,18.12
2023-07-03T21:52:40.536Z,17.95
2023-07-03T21:55:09.205Z,17.92
2023-07-03T21:57:36.471Z,17.65
2023-07-03T22:00:04.001Z,18.56
2023-07-03T22:02:33.366Z,18.82
2023-07-03T22:05:00.418Z,19.27
2023-07-03T22:07:27.632Z,18.84
2023-07-03T22:09:55.045Z,18.97
2023-07-03T22:12:22.481Z,19.00
2023-07-03T22:14:49.784Z,19.24
2023-07-03T22:17:16.517Z,19.12
2023-07-03T22:19:43.600Z,18.77
2023-07-03T22:22:10.910Z,19.34
2023-07-03T22:24:38.486Z,19.31
2023-07-03T22:27:05.851Z,19.28
2023-07-03T22:29:33.040Z,19.11
2023-07-03T22:32:00.189Z,18.88
2023-07-03T22:34:27.304Z,19.16
2023-07-03T22:36:54.091Z,19.44
2023-07-03T22:39:20.813Z,18.59
2023-07-03T22:41:47.617Z,18.48
2023-07-03T22:44:20.585Z,18.34
2023-07-03T22:46:50.568Z,18.25
2023-07-03T22:49:24.413Z,18.07
2023-07-03T22:51:52.050Z,18.10
2023-07-03T22:54:19.644Z,18.20
2023-07-03T22:56:46.766Z,18.31
2023-07-03T22:59:15.393Z,18.10
2023-07-03T23:01:42.679Z,17.93
2023-07-03T23:04:09.425Z,18.25
2023-07-03T23:06:37.266Z,18.56
2023-07-03T23:09:03.998Z,18.76
2023-07-03T23:11:30.697Z,18.64
2023-07-03T23:13:58.900Z,17.92
2023-07-03T23:16:25.909Z,18.22
2023-07-03T23:18:52.725Z,18.02
2023-07-03T23:21:19.437Z,18.12
2023-07-03T23:23:46.146Z,17.89
2023-07-03T23:26:14.217Z,17.91
2023-07-03T23:28:42.057Z,18.69
2023-07-03T23:31:13.706Z,18.42
2023-07-03T23:33:41.054Z,18.92
2023-07-03T23:36:09.645Z,18.84
2023-07-03T23:38:37.215Z,18.80
2023-07-03T23:41:05.692Z,19.04
2023-07-03T23:43:40.447Z,19.12
2023-07-03T23:46:08.193Z,19.45
2023-07-03T23:48:36.822Z,19.81
2023-07-03T23:51:05.523Z,19.16
2023-07-03T23:53:34.054Z,19.73
2023-07-03T23:56:04.417Z,19.47
2023-07-03T23:58:36.559Z,19.83
